Time;durP1;ratioP1;P1;durP2;ratioP2;P2;SDS_P1;SDS_P2;PMS_P1;PMS_P2;Temp;Humidity;BMP_temperature;BMP_pressure;BME280_temperature;BME280_humidity;BME280_pressure;Samples;Min_cycle;Max_cycle;Signal;HPM_P1;HPM_P2
2023/11/24 00:02:06;;;;;;;24.75;14.77;;;;;;;7.29;84.33;94439.06;5053066;28;20029;-70
2023/11/24 00:04:33;;;;;;;24.15;14.65;;;;;;;7.25;84.58;94435.09;5035551;28;20087;-69
2023/11/24 00:06:58;;;;;;;29.48;16.38;;;;;;;7.11;85.28;94438.72;5070105;28;20021;-69
2023/11/24 00:09:26;;;;;;;36.80;19.67;;;;;;;7.30;84.71;94440.72;5072720;28;20487;-69
2023/11/24 00:11:52;;;;;;;42.95;25.35;;;;;;;7.35;84.66;94438.59;5071291;28;20036;-69
2023/11/24 00:14:17;;;;;;;47.83;24.25;;;;;;;7.34;84.95;94434.38;5054606;28;20029;-69
2023/11/24 00:16:43;;;;;;;37.55;20.80;;;;;;;7.43;84.71;94431.09;5050458;28;20432;-69
2023/11/24 00:19:13;;;;;;;48.58;23.27;;;;;;;7.35;84.87;94417.94;5067761;28;20495;-69
2023/11/24 00:21:40;;;;;;;47.55;21.92;;;;;;;7.26;85.08;94396.22;5035291;28;20513;-69
2023/11/24 00:24:06;;;;;;;39.60;21.02;;;;;;;7.41;85.20;94407.16;5051019;28;20048;-69
2023/11/24 00:26:32;;;;;;;43.85;23.10;;;;;;;7.21;85.07;94398.31;5086481;28;20051;-69
2023/11/24 00:28:57;;;;;;;40.83;21.58;;;;;;;7.32;85.53;94397.50;5072246;28;20029;-69
2023/11/24 00:31:26;;;;;;;37.55;19.60;;;;;;;7.44;84.72;94395.72;5071166;28;20039;-69
2023/11/24 00:33:52;;;;;;;35.22;18.30;;;;;;;7.44;83.97;94391.41;5069483;28;20055;-69
2023/11/24 00:36:17;;;;;;;35.28;18.80;;;;;;;7.22;83.92;94389.66;5054329;28;20495;-69
2023/11/24 00:38:42;;;;;;;32.08;17.92;;;;;;;7.23;84.06;94386.09;5054148;28;20469;-69
2023/11/24 00:41:13;;;;;;;32.60;16.63;;;;;;;7.09;83.54;94363.09;5054104;28;20479;-69
2023/11/24 00:43:39;;;;;;;19.52;13.05;;;;;;;6.97;83.65;94362.28;5064049;28;20035;-69
2023/11/24 00:46:08;;;;;;;24.00;14.63;;;;;;;6.33;85.74;94357.56;5050858;28;20057;-69
2023/11/24 00:48:35;;;;;;;28.70;16.10;;;;;;;6.29;86.72;94365.63;5050801;28;20036;-69
2023/11/24 00:51:00;;;;;;;24.63;14.02;;;;;;;6.33;85.61;94349.81;5050607;28;20036;-69
2023/11/24 00:53:26;;;;;;;19.98;11.98;;;;;;;6.42;85.96;94345.75;5063015;28;20033;-69
2023/11/24 00:55:51;;;;;;;23.77;13.57;;;;;;;6.47;85.31;94359.94;5053302;28;20499;-69
2023/11/24 00:58:17;;;;;;;26.27;13.93;;;;;;;6.18;86.29;94359.50;5072044;28;20028;-69
2023/11/24 01:00:42;;;;;;;24.15;12.18;;;;;;;6.32;86.54;94358.47;5070282;28;20036;-69
2023/11/24 01:03:08;;;;;;;26.60;13.40;;;;;;;6.40;85.99;94355.34;5052555;28;20110;-69
2023/11/24 01:05:35;;;;;;;24.95;13.55;;;;;;;6.34;86.13;94335.97;5071807;28;20052;-69
2023/11/24 01:08:00;;;;;;;22.90;13.77;;;;;;;6.41;86.29;94329.44;5070418;28;20105;-69
2023/11/24 01:10:26;;;;;;;28.80;15.05;;;;;;;6.29;86.48;94339.84;5069009;28;20456;-70
2023/11/24 01:12:52;;;;;;;21.92;12.88;;;;;;;6.33;86.77;94308.53;5070122;28;20081;-69
2023/11/24 01:15:17;;;;;;;25.83;14.73;;;;;;;6.14;87.56;94319.41;5071398;28;20020;-69
2023/11/24 01:17:44;;;;;;;27.02;13.30;;;;;;;6.30;87.67;94303.63;5053654;28;20085;-69
2023/11/24 01:20:10;;;;;;;25.42;14.13;;;;;;;6.05;88.45;94312.34;5044615;28;20043;-69
2023/11/24 01:22:36;;;;;;;36.67;14.27;;;;;;;6.19;88.44;94298.44;5050048;28;20033;-69
2023/11/24 01:25:02;;;;;;;23.15;14.00;;;;;;;6.15;89.27;94308.13;5050081;28;20032;-69
2023/11/24 01:27:27;;;;;;;38.88;16.17;;;;;;;6.12;89.13;94295.47;5054121;28;20059;-69
2023/11/24 01:29:52;;;;;;;22.52;15.50;;;;;;;6.25;88.22;94273.00;5068928;28;20028;-69
2023/11/24 01:32:18;;;;;;;26.15;15.68;;;;;;;6.11;87.77;94280.94;5069878;28;20418;-69
2023/11/24 01:34:43;;;;;;;22.92;13.30;;;;;;;6.17;87.84;94265.00;5071128;28;20170;-69
2023/11/24 01:37:09;;;;;;;21.00;12.40;;;;;;;5.94;86.27;94271.03;5069244;28;20032;-68
2023/11/24 01:39:36;;;;;;;15.93;10.30;;;;;;;5.90;85.79;94267.00;5049773;28;20124;-68
2023/11/24 01:42:02;;;;;;;17.55;11.52;;;;;;;5.68;86.73;94271.13;5051082;28;20107;-69
2023/11/24 01:44:28;;;;;;;22.42;11.93;;;;;;;5.77;87.23;94265.31;5049696;28;20154;-69
2023/11/24 01:46:54;;;;;;;16.85;10.73;;;;;;;5.60;87.75;94253.66;5053977;28;20070;-68
2023/11/24 01:49:20;;;;;;;15.85;10.15;;;;;;;5.87;87.17;94251.75;5053058;28;20020;-69
2023/11/24 01:51:47;;;;;;;18.23;11.40;;;;;;;5.74;86.85;94251.81;5069424;28;20040;-69
2023/11/24 01:54:13;;;;;;;18.80;11.32;;;;;;;5.68;87.61;94226.50;5070915;28;20036;-69
2023/11/24 01:56:38;;;;;;;16.88;11.07;;;;;;;5.57;88.13;94243.59;5067832;28;20057;-69
2023/11/24 01:59:04;;;;;;;17.30;10.63;;;;;;;5.70;86.75;94232.38;5085355;28;20047;-69
2023/11/24 02:01:30;;;;;;;15.43;9.70;;;;;;;5.65;86.86;94206.09;5085934;28;20044;-69
2023/11/24 02:03:55;;;;;;;13.15;8.85;;;;;;;5.46;86.41;94222.91;5085650;28;20036;-69
2023/11/24 02:06:21;;;;;;;15.82;9.15;;;;;;;5.37;88.08;94224.38;5067776;28;20086;-68
2023/11/24 02:08:46;;;;;;;12.27;8.30;;;;;;;5.56;87.69;94207.59;5069284;28;20033;-68
2023/11/24 02:11:12;;;;;;;12.35;8.13;;;;;;;5.38;87.68;94210.59;5086174;28;20037;-70
2023/11/24 02:13:37;;;;;;;12.75;8.05;;;;;;;5.43;88.53;94199.94;5067838;28;20095;-69
2023/11/24 02:16:03;;;;;;;11.65;8.27;;;;;;;5.23;88.58;94192.81;5069412;28;20032;-68
2023/11/24 02:18:28;;;;;;;11.50;7.68;;;;;;;5.62;88.46;94211.50;5068456;28;20043;-68
2023/11/24 02:20:54;;;;;;;12.10;8.52;;;;;;;5.61;87.84;94195.22;5070555;28;20087;-69
2023/11/24 02:23:19;;;;;;;11.00;7.20;;;;;;;5.50;85.99;94159.91;5084684;28;20025;-68
2023/11/24 02:25:44;;;;;;;10.48;7.00;;;;;;;5.48;85.55;94171.28;5069261;28;20036;-69
2023/11/24 02:28:10;;;;;;;12.32;7.38;;;;;;;5.64;86.39;94174.38;5069313;28;20035;-69
2023/11/24 02:30:35;;;;;;;12.82;8.00;;;;;;;5.68;86.52;94175.78;5069324;28;20032;-69
2023/11/24 02:33:01;;;;;;;12.75;7.80;;;;;;;5.62;85.83;94155.63;5043430;28;20376;-69
2023/11/24 02:35:28;;;;;;;13.27;8.45;;;;;;;5.54;86.74;94174.25;5056823;28;20037;-68
2023/11/24 02:37:55;;;;;;;12.05;8.18;;;;;;;5.68;87.71;94162.06;5070690;28;20036;-69
2023/11/24 02:40:20;;;;;;;12.65;8.05;;;;;;;5.57;87.09;94157.69;5052712;28;20040;-69
2023/11/24 02:42:46;;;;;;;15.57;12.63;;;;;;;5.68;87.01;94154.34;5048348;28;20033;-69
2023/11/24 02:45:12;;;;;;;19.63;14.05;;;;;;;5.56;87.32;94150.91;5050333;28;20491;-69
2023/11/24 02:47:37;;;;;;;20.40;13.85;;;;;;;5.47;87.68;94142.13;5049119;28;20040;-69
2023/11/24 02:50:03;;;;;;;14.93;11.57;;;;;;;5.65;87.59;94139.94;5049834;28;20138;-70
2023/11/24 02:52:28;;;;;;;21.98;14.43;;;;;;;5.45;87.85;94138.00;5068695;28;20028;-69
2023/11/24 02:54:54;;;;;;;24.83;15.80;;;;;;;5.56;87.91;94125.16;5070277;28;20032;-69
2023/11/24 02:57:20;;;;;;;24.52;15.40;;;;;;;5.62;87.87;94142.72;5070246;28;20041;-69
2023/11/24 02:59:45;;;;;;;28.90;18.42;;;;;;;5.51;88.87;94132.41;5068694;28;20044;-69
2023/11/24 03:02:10;;;;;;;34.38;19.77;;;;;;;5.37;89.12;94105.88;5070346;28;20037;-69
2023/11/24 03:04:37;;;;;;;31.02;16.80;;;;;;;5.76;88.24;94134.78;5052344;28;20033;-69
2023/11/24 03:07:04;;;;;;;34.25;17.63;;;;;;;5.49;88.53;94117.06;5068812;28;20086;-69
2023/11/24 03:09:29;;;;;;;29.05;17.20;;;;;;;5.62;89.06;94135.00;5069101;28;20486;-69
2023/11/24 03:11:55;;;;;;;25.80;15.43;;;;;;;5.91;87.59;94124.28;5072463;28;20044;-69
2023/11/24 03:14:20;;;;;;;23.75;14.55;;;;;;;5.82;86.67;94108.59;5072510;28;20040;-69
2023/11/24 03:16:49;;;;;;;20.27;13.30;;;;;;;5.92;86.68;94108.69;5055631;28;20025;-69
2023/11/24 03:19:14;;;;;;;20.63;13.55;;;;;;;6.00;86.98;94116.69;5055462;28;20029;-69
2023/11/24 03:21:40;;;;;;;19.23;12.93;;;;;;;5.88;87.50;94106.44;5068818;28;20032;-69
2023/11/24 03:24:06;;;;;;;20.45;13.60;;;;;;;5.68;88.13;94100.22;5052324;28;20033;-69
2023/11/24 03:26:32;;;;;;;19.27;13.38;;;;;;;5.63;88.77;94095.44;5036736;28;20025;-69
2023/11/24 03:28:57;;;;;;;19.02;13.43;;;;;;;6.00;88.72;94088.34;5072228;28;20029;-69
2023/11/24 03:31:23;;;;;;;20.27;13.45;;;;;;;6.06;87.92;94081.88;5072089;28;20029;-69
2023/11/24 03:33:48;;;;;;;23.30;14.40;;;;;;;6.14;88.04;94078.72;5073285;28;20028;-69
2023/11/24 03:36:14;;;;;;;23.73;14.63;;;;;;;6.31;87.41;94074.84;5071856;28;20031;-69
2023/11/24 03:38:39;;;;;;;24.77;13.85;;;;;;;6.25;87.12;94064.06;5072155;28;20033;-69
2023/11/24 03:41:05;;;;;;;23.55;14.77;;;;;;;6.15;88.13;94060.53;5073305;28;20036;-69
2023/11/24 03:43:30;;;;;;;22.85;13.20;;;;;;;6.30;87.39;94053.41;5055498;28;20055;-69
2023/11/24 03:45:56;;;;;;;25.20;15.32;;;;;;;6.01;88.31;94058.22;5071268;28;20068;-69
2023/11/24 03:48:21;;;;;;;28.88;17.15;;;;;;;6.24;88.46;94046.97;5071821;28;20410;-69
2023/11/24 03:50:53;;;;;;;25.05;14.77;;;;;;;6.23;87.87;94042.72;5071833;28;20083;-69
2023/11/24 03:53:18;;;;;;;;;;;;;;;5.98;88.86;94040.41;5072129;28;20039;-69
2023/11/24 03:55:44;;;;;;;29.33;15.13;;;;;;;6.00;89.49;94026.47;5050353;28;19920;-69
2023/11/24 03:58:09;;;;;;;24.92;14.88;;;;;;;6.27;88.11;94027.84;5098740;28;20031;-68
2023/11/24 04:00:35;;;;;;;25.63;15.23;;;;;;;6.12;87.40;93998.06;5068343;28;20040;-69
2023/11/24 04:03:04;;;;;;;24.88;14.18;;;;;;;6.29;87.51;94020.78;5069427;28;20060;-67
2023/11/24 04:05:29;;;;;;;27.88;15.20;;;;;;;6.26;87.47;94021.84;5068894;28;20021;-67
2023/11/24 04:07:55;;;;;;;34.17;16.17;;;;;;;6.30;87.14;94017.28;5054248;28;20605;-67
2023/11/24 04:10:21;;;;;;;37.15;20.55;;;;;;;5.95;88.40;94013.09;5070439;28;20081;-67
2023/11/24 04:12:46;;;;;;;43.08;22.40;;;;;;;5.85;89.37;94030.19;5067441;28;20399;-67
2023/11/24 04:15:13;;;;;;;47.83;24.02;;;;;;;5.73;90.19;94028.53;5070179;28;20560;-67
2023/11/24 04:17:38;;;;;;;43.38;21.52;;;;;;;6.04;90.33;94040.78;5053618;28;20500;-67
2023/11/24 04:20:06;;;;;;;30.17;19.60;;;;;;;6.30;88.95;94037.91;5051626;28;20082;-67
2023/11/24 04:22:35;;;;;;;35.63;20.13;;;;;;;6.17;88.88;94022.56;5051406;28;20037;-67
2023/11/24 04:25:00;;;;;;;32.80;19.27;;;;;;;6.33;88.86;94042.84;5068772;28;20051;-67
2023/11/24 04:27:26;;;;;;;29.90;18.20;;;;;;;6.39;88.31;94041.53;5071949;28;20020;-67
2023/11/24 04:29:51;;;;;;;38.92;23.60;;;;;;;6.17;89.37;94050.94;5070219;28;20148;-69
2023/11/24 04:32:17;;;;;;;33.45;17.77;;;;;;;6.27;89.10;94038.16;5067118;28;20047;-68
2023/11/24 04:34:43;;;;;;;32.75;17.98;;;;;;;6.40;88.84;94054.28;5070101;28;20033;-68
2023/11/24 04:37:08;;;;;;;48.25;25.33;;;;;;;6.51;87.15;94037.97;5068074;28;20379;-68
2023/11/24 04:39:34;;;;;;;72.30;28.48;;;;;;;6.38;87.56;94032.13;5070498;28;20032;-68
2023/11/24 04:41:59;;;;;;;46.53;25.52;;;;;;;6.18;88.84;94050.00;5100986;28;20317;-68
2023/11/24 04:44:25;;;;;;;37.13;20.10;;;;;;;6.33;88.74;94042.84;5069557;28;20032;-68
2023/11/24 04:46:50;;;;;;;25.88;16.10;;;;;;;6.31;88.38;94044.72;5103213;28;20040;-68
2023/11/24 04:49:15;;;;;;;29.35;17.98;;;;;;;6.36;88.59;94036.63;5067807;28;20062;-68
2023/11/24 04:51:41;;;;;;;32.90;19.98;;;;;;;6.25;88.34;94033.09;5067769;28;20036;-68
2023/11/24 04:54:06;;;;;;;29.77;18.50;;;;;;;6.37;88.94;94040.81;5069028;28;20469;-68
2023/11/24 04:56:32;;;;;;;35.78;17.75;;;;;;;6.32;89.05;94030.03;5069546;28;20044;-69
2023/11/24 04:58:57;;;;;;;28.60;16.60;;;;;;;6.41;89.00;94039.66;5050833;28;20807;-68
2023/11/24 05:01:23;;;;;;;27.30;15.25;;;;;;;6.21;88.57;94005.94;5068828;28;20108;-68
2023/11/24 05:03:49;;;;;;;29.40;16.08;;;;;;;6.33;88.61;94023.97;5068048;28;20033;-68
2023/11/24 05:06:15;;;;;;;26.40;15.88;;;;;;;6.54;88.47;94029.16;5067907;28;20103;-69
2023/11/24 05:08:41;;;;;;;26.23;16.23;;;;;;;6.65;87.04;94035.13;5085868;28;20174;-68
2023/11/24 05:11:06;;;;;;;35.45;16.58;;;;;;;6.44;87.44;94021.34;5069000;28;20028;-68
2023/11/24 05:13:32;;;;;;;23.58;14.70;;;;;;;6.48;87.82;94027.91;5068718;28;20577;-69
2023/11/24 05:15:57;;;;;;;25.33;15.65;;;;;;;6.45;87.77;94015.25;5067659;28;20572;-69
2023/11/24 05:18:24;;;;;;;23.05;14.38;;;;;;;6.43;87.82;93999.88;5068480;28;20031;-69
2023/11/24 05:20:50;;;;;;;20.98;14.57;;;;;;;6.55;87.76;94000.69;5068945;28;20070;-69
2023/11/24 05:23:15;;;;;;;22.90;14.57;;;;;;;6.36;88.28;94005.66;5068185;28;20497;-69
2023/11/24 05:25:42;;;;;;;20.98;13.70;;;;;;;6.52;86.95;93990.59;5070411;28;20039;-69
2023/11/24 05:28:07;;;;;;;20.95;14.07;;;;;;;6.55;85.85;93989.53;5101065;28;20040;-69
2023/11/24 05:30:34;;;;;;;22.33;14.70;;;;;;;6.39;86.85;93980.44;5069561;28;20029;-68
2023/11/24 05:33:03;;;;;;;22.40;14.70;;;;;;;6.37;86.93;93987.47;5065618;28;20040;-69
2023/11/24 05:35:29;;;;;;;21.65;13.32;;;;;;;6.33;87.47;93993.00;5068697;28;20421;-69
2023/11/24 05:37:54;;;;;;;21.35;14.27;;;;;;;6.32;86.94;93981.03;5085567;28;20033;-69
2023/11/24 05:40:20;;;;;;;19.83;13.27;;;;;;;6.32;85.51;93984.44;5067800;28;20025;-69
2023/11/24 05:42:45;;;;;;;18.05;12.02;;;;;;;6.35;84.89;93993.69;5050159;28;20039;-69
2023/11/24 05:45:14;;;;;;;15.48;10.82;;;;;;;6.26;84.19;93972.84;5068659;28;20514;-69
2023/11/24 05:47:39;;;;;;;13.95;9.95;;;;;;;6.23;84.28;93974.84;5070211;28;20028;-69
2023/11/24 05:50:05;;;;;;;13.23;9.73;;;;;;;6.05;84.92;93987.44;5068306;28;20510;-68
2023/11/24 05:52:32;;;;;;;13.23;9.13;;;;;;;6.02;84.27;93962.72;5050582;28;20083;-69
2023/11/24 05:54:58;;;;;;;14.80;9.50;;;;;;;5.78;85.26;93962.81;5069972;28;20090;-69
2023/11/24 05:57:24;;;;;;;16.83;10.00;;;;;;;5.55;86.38;93976.66;5067663;28;20032;-69
2023/11/24 06:00:21;;;;;;;13.95;9.88;;;;;;;5.95;85.89;93971.03;5069250;28;20042;-69
2023/11/24 06:02:46;;;;;;;15.30;9.80;;;;;;;5.86;86.38;93977.69;5047393;28;20044;-68
2023/11/24 06:05:12;;;;;;;20.63;9.95;;;;;;;5.88;86.15;93986.13;5060001;28;20033;-67
2023/11/24 06:07:39;;;;;;;14.70;10.48;;;;;;;5.85;87.29;93982.97;5066836;28;20028;-67
2023/11/24 06:10:06;;;;;;;15.25;11.13;;;;;;;5.62;86.46;93982.16;5069683;28;20044;-67
2023/11/24 06:12:32;;;;;;;13.32;9.52;;;;;;;5.92;86.25;93991.88;5032543;28;20509;-68
2023/11/24 06:14:57;;;;;;;12.70;9.45;;;;;;;6.06;85.53;93980.50;5069366;28;20032;-68
2023/11/24 06:17:23;;;;;;;18.17;11.18;;;;;;;5.98;86.03;93981.09;5068786;28;20035;-68
2023/11/24 06:19:48;;;;;;;16.38;11.30;;;;;;;5.86;87.03;93979.47;5067430;28;20082;-68
2023/11/24 06:22:13;;;;;;;20.70;14.95;;;;;;;5.87;87.13;93974.16;5050831;28;20037;-68
2023/11/24 06:24:39;;;;;;;12.85;9.80;;;;;;;5.96;87.09;93977.81;5050738;28;20025;-69
2023/11/24 06:27:04;;;;;;;11.85;8.93;;;;;;;6.19;86.70;93976.03;5068466;28;20180;-68
2023/11/24 06:29:30;;;;;;;14.38;8.82;;;;;;;6.10;86.62;93959.53;5065875;28;20048;-69
2023/11/24 06:31:55;;;;;;;16.58;14.77;;;;;;;6.25;86.66;93984.09;5068529;28;20032;-68
2023/11/24 06:34:21;;;;;;;12.73;9.35;;;;;;;6.16;85.81;93940.19;5069444;28;20052;-68
2023/11/24 06:36:46;;;;;;;28.20;19.98;;;;;;;6.17;86.32;93971.00;5067574;28;20081;-68
2023/11/24 06:39:12;;;;;;;26.13;19.25;;;;;;;6.31;86.76;93967.31;5068664;28;20036;-68
2023/11/24 06:41:37;;;;;;;18.15;13.32;;;;;;;6.45;86.37;93979.94;5064776;28;20044;-68
2023/11/24 06:44:03;;;;;;;18.75;13.48;;;;;;;6.54;85.96;93978.38;5069602;28;20046;-68
2023/11/24 06:46:28;;;;;;;24.33;18.15;;;;;;;6.62;86.01;93967.44;5052026;28;20032;-68
2023/11/24 06:48:54;;;;;;;24.38;16.33;;;;;;;6.64;86.21;93950.91;5065942;28;20036;-68
2023/11/24 06:51:19;;;;;;;24.27;17.15;;;;;;;6.61;86.87;93958.06;5070687;28;20035;-69
2023/11/24 06:53:45;;;;;;;23.42;15.13;;;;;;;6.77;86.70;93939.56;5067602;28;20527;-69
2023/11/24 06:56:11;;;;;;;24.92;16.83;;;;;;;6.79;86.66;93948.00;5055610;28;20055;-69
2023/11/24 06:58:36;;;;;;;23.48;16.88;;;;;;;6.91;86.34;93924.59;5069007;28;20525;-69
2023/11/24 07:01:04;;;;;;;25.95;18.35;;;;;;;7.01;86.56;93929.81;5073544;28;20116;-68
2023/11/24 07:03:30;;;;;;;31.58;21.42;;;;;;;6.79;87.18;93938.50;5070625;28;20630;-69
2023/11/24 07:05:56;;;;;;;26.20;19.20;;;;;;;6.94;86.25;93902.88;5071768;28;20043;-69
2023/11/24 07:08:21;;;;;;;28.60;18.90;;;;;;;7.18;86.07;93931.00;5104318;28;20032;-69
2023/11/24 07:10:47;;;;;;;28.88;20.50;;;;;;;7.15;86.30;93920.91;5070176;28;20036;-69
2023/11/24 07:13:12;;;;;;;26.17;19.15;;;;;;;7.27;85.63;93899.25;5070318;28;20418;-68
2023/11/24 07:15:38;;;;;;;28.63;19.98;;;;;;;7.26;85.62;93909.69;5071071;28;20028;-69
2023/11/24 07:18:03;;;;;;;31.55;23.42;;;;;;;7.34;86.30;93913.25;5073397;28;20394;-69
2023/11/24 07:20:29;;;;;;;47.42;32.28;;;;;;;6.93;87.03;93906.38;5070194;28;20506;-69
2023/11/24 07:22:55;;;;;;;46.38;30.95;;;;;;;7.18;87.35;93901.75;5070955;28;20036;-69
2023/11/24 07:25:20;;;;;;;42.20;28.58;;;;;;;7.27;87.17;93907.00;5050447;28;20123;-69
2023/11/24 07:27:46;;;;;;;52.17;33.30;;;;;;;6.91;87.14;93870.38;5068738;28;20075;-69
2023/11/24 07:30:11;;;;;;;61.72;33.10;;;;;;;6.97;88.07;93899.22;5073075;28;20024;-69
2023/11/24 07:32:37;;;;;;;45.42;30.00;;;;;;;7.40;87.00;93891.25;5069976;28;20032;-69
2023/11/24 07:35:03;;;;;;;51.38;33.13;;;;;;;7.03;87.92;93896.13;5071889;28;20111;-69
2023/11/24 07:37:29;;;;;;;66.43;41.10;;;;;;;7.05;88.20;93902.81;5053811;28;20033;-69
2023/11/24 07:39:54;;;;;;;53.83;32.97;;;;;;;7.24;87.79;93896.88;5064423;28;20032;-69
2023/11/24 07:42:21;;;;;;;45.80;27.70;;;;;;;6.99;88.04;93897.31;5036416;28;20032;-69
2023/11/24 07:44:48;;;;;;;36.55;21.95;;;;;;;6.85;88.72;93898.44;5062761;28;20499;-69
2023/11/24 07:47:14;;;;;;;36.20;24.15;;;;;;;6.80;89.21;93916.06;5051411;28;20052;-69
2023/11/24 07:49:40;;;;;;;34.42;20.58;;;;;;;7.01;87.90;93898.81;5066818;28;20029;-69
2023/11/24 07:52:06;;;;;;;31.13;20.45;;;;;;;7.11;87.51;93896.31;5069808;28;20044;-69
2023/11/24 07:54:31;;;;;;;37.65;23.75;;;;;;;7.00;87.72;93902.34;5070274;28;20051;-69
2023/11/24 07:56:57;;;;;;;39.38;23.88;;;;;;;6.97;88.19;93907.78;5061414;28;20550;-69
2023/11/24 07:59:23;;;;;;;39.38;22.85;;;;;;;7.27;87.21;93898.41;5065364;28;20493;-69
2023/11/24 08:01:49;;;;;;;33.55;20.67;;;;;;;7.26;86.79;93883.84;5068266;28;20043;-68
2023/11/24 08:04:14;;;;;;;39.13;23.00;;;;;;;7.22;86.52;93862.63;5073028;28;20032;-69
2023/11/24 08:06:39;;;;;;;35.90;22.55;;;;;;;7.52;85.41;93892.81;5069978;28;20028;-69
2023/11/24 08:09:08;;;;;;;32.83;20.55;;;;;;;7.58;85.65;93897.44;5070915;28;20044;-69
2023/11/24 08:11:36;;;;;;;32.78;20.73;;;;;;;7.70;85.51;93908.50;5051779;28;20520;-69
2023/11/24 08:14:01;;;;;;;33.97;21.15;;;;;;;7.64;86.78;93885.75;5072269;28;20036;-68
2023/11/24 08:16:27;;;;;;;35.58;23.27;;;;;;;7.69;86.70;93881.03;5069602;28;20043;-68
2023/11/24 08:18:52;;;;;;;33.70;21.42;;;;;;;7.73;87.30;93871.22;5065190;28;20498;-69
2023/11/24 08:21:18;;;;;;;30.52;19.75;;;;;;;7.79;87.44;93855.19;5083239;28;20113;-69
2023/11/24 08:23:44;;;;;;;32.38;21.45;;;;;;;7.99;86.69;93871.53;5050042;28;20422;-69
2023/11/24 08:26:17;;;;;;;27.48;19.02;;;;;;;8.13;87.06;93870.31;5065098;28;20039;-69
2023/11/24 08:28:44;;;;;;;37.72;22.42;;;;;;;8.27;86.82;93864.75;5070201;28;20029;-69
2023/11/24 08:31:15;;;;;;;39.13;22.67;;;;;;;8.40;86.61;93857.56;5086592;28;20037;-69
2023/11/24 08:33:40;;;;;;;28.38;18.35;;;;;;;8.48;85.26;93844.75;5069436;28;20036;-69
2023/11/24 08:36:06;;;;;;;26.40;17.83;;;;;;;8.38;84.94;93846.50;5070165;28;20039;-69
2023/11/24 08:38:32;;;;;;;25.33;15.93;;;;;;;8.37;84.61;93825.94;5060600;28;20020;-69
2023/11/24 08:40:57;;;;;;;24.90;15.52;;;;;;;8.48;84.78;93820.66;5068780;28;20033;-69
2023/11/24 08:43:23;;;;;;;21.60;14.52;;;;;;;8.64;84.48;93828.66;5031870;28;20062;-69
2023/11/24 08:45:48;;;;;;;20.92;14.82;;;;;;;8.64;84.39;93814.91;5052282;28;20115;-69
2023/11/24 08:48:14;;;;;;;21.33;14.18;;;;;;;8.74;84.09;93807.91;5053337;28;20062;-69
2023/11/24 08:50:39;;;;;;;25.83;17.77;;;;;;;8.61;84.38;93804.81;5069146;28;20037;-69
2023/11/24 08:53:05;;;;;;;25.95;17.73;;;;;;;8.87;83.51;93805.84;5051296;28;20025;-69
2023/11/24 08:55:31;;;;;;;27.85;18.17;;;;;;;8.82;82.93;93761.41;5071613;28;20102;-69
2023/11/24 08:57:59;;;;;;;33.80;21.95;;;;;;;8.65;84.49;93799.22;5068375;28;20534;-69
2023/11/24 09:00:27;;;;;;;28.30;19.25;;;;;;;8.88;83.98;93788.53;5053103;28;20024;-69
2023/11/24 09:02:53;;;;;;;25.35;18.42;;;;;;;9.04;83.03;93787.94;5066882;28;20085;-69
2023/11/24 09:05:18;;;;;;;28.70;20.13;;;;;;;9.06;82.65;93767.88;5070272;28;20033;-70
2023/11/24 09:07:44;;;;;;;24.60;18.17;;;;;;;9.12;82.30;93775.06;5068280;28;20087;-69
2023/11/24 09:10:10;;;;;;;23.30;17.25;;;;;;;9.25;81.95;93772.97;5069216;28;20052;-69
2023/11/24 09:12:35;;;;;;;27.17;18.48;;;;;;;9.25;81.87;93777.31;5034495;28;20024;-69
2023/11/24 09:15:05;;;;;;;25.75;17.48;;;;;;;9.24;81.47;93758.38;5068400;28;20457;-69
2023/11/24 09:17:32;;;;;;;26.92;18.25;;;;;;;9.33;81.63;93780.84;5069789;28;20024;-69
2023/11/24 09:19:58;;;;;;;22.55;16.27;;;;;;;9.48;81.24;93759.63;5067815;28;20033;-69
2023/11/24 09:22:23;;;;;;;28.90;19.02;;;;;;;9.45;81.70;93763.31;5051449;28;20028;-69
2023/11/24 09:24:48;;;;;;;23.67;16.73;;;;;;;9.62;81.76;93759.09;5051427;28;20414;-69
2023/11/24 09:27:14;;;;;;;22.55;13.70;;;;;;;9.54;82.20;93749.47;5052936;28;20025;-69
2023/11/24 09:29:39;;;;;;;15.68;10.82;;;;;;;9.72;80.82;93756.44;5068553;28;20123;-69
2023/11/24 09:32:05;;;;;;;19.58;12.55;;;;;;;9.79;80.86;93737.56;5066701;28;20033;-69
2023/11/24 09:34:32;;;;;;;15.55;11.27;;;;;;;9.85;79.13;93747.31;5069446;28;20392;-69
2023/11/24 09:36:57;;;;;;;16.95;11.13;;;;;;;9.82;79.14;93720.88;5067432;28;20059;-69
2023/11/24 09:39:26;;;;;;;14.88;10.63;;;;;;;9.85;77.62;93718.78;5066241;28;20048;-69
2023/11/24 09:41:52;;;;;;;17.15;11.48;;;;;;;9.83;78.37;93717.31;5050160;28;20036;-69
2023/11/24 09:44:18;;;;;;;17.00;10.38;;;;;;;9.74;76.79;93677.53;5052474;28;20035;-69
2023/11/24 09:46:43;;;;;;;18.38;12.07;;;;;;;9.68;78.12;93692.88;5069373;28;20492;-70
2023/11/24 09:49:09;;;;;;;16.95;12.10;;;;;;;9.58;79.35;93698.13;5050902;28;20120;-69
2023/11/24 09:51:36;;;;;;;20.25;12.60;;;;;;;9.73;78.71;93699.25;5068855;28;20025;-69
2023/11/24 09:54:03;;;;;;;21.50;13.38;;;;;;;9.69;79.21;93694.50;5034679;28;20082;-69
2023/11/24 09:56:28;;;;;;;17.27;12.18;;;;;;;9.71;78.45;93684.78;5052806;28;20128;-69
2023/11/24 09:58:54;;;;;;;20.52;13.52;;;;;;;9.52;79.80;93677.97;5067756;28;20936;-69
2023/11/24 10:01:21;;;;;;;16.13;11.80;;;;;;;9.59;77.75;93663.47;5052108;28;20032;-69
2023/11/24 10:03:52;;;;;;;18.17;12.13;;;;;;;9.29;80.28;93652.50;5050604;28;20449;-69
2023/11/24 10:06:18;;;;;;;17.65;12.88;;;;;;;9.29;80.88;93665.47;5051955;28;20025;-69
2023/11/24 10:08:45;;;;;;;17.67;12.77;;;;;;;9.66;79.65;93664.50;5050003;28;20044;-69
2023/11/24 10:11:27;;;;;;;19.88;12.75;;;;;;;9.74;78.40;93650.78;5050710;28;20028;-69
2023/11/24 10:13:53;;;;;;;17.17;12.30;;;;;;;9.70;78.87;93639.91;5061587;28;20056;-69
2023/11/24 10:16:19;;;;;;;19.73;13.20;;;;;;;9.76;79.11;93639.28;5063000;28;20505;-70
2023/11/24 10:18:45;;;;;;;20.08;13.30;;;;;;;9.54;80.18;93640.56;5068918;28;20036;-69
2023/11/24 10:21:11;;;;;;;15.85;11.20;;;;;;;9.60;80.22;93642.56;5054152;28;20020;-69
2023/11/24 10:23:37;;;;;;;15.60;11.85;;;;;;;9.75;79.73;93637.69;5072045;28;20387;-69
2023/11/24 10:26:03;;;;;;;24.23;16.13;;;;;;;9.68;80.05;93626.28;5072511;28;20036;-69
2023/11/24 10:28:29;;;;;;;20.05;13.55;;;;;;;9.69;79.81;93616.69;5054827;28;20029;-69
2023/11/24 10:30:55;;;;;;;19.88;12.07;;;;;;;9.69;79.39;93607.13;5073971;28;20027;-69
2023/11/24 10:33:22;;;;;;;16.75;11.20;;;;;;;9.52;80.14;93606.19;5069495;28;20035;-69
2023/11/24 10:35:49;;;;;;;13.90;10.25;;;;;;;9.51;80.18;93608.97;5056337;28;20025;-70
2023/11/24 10:38:16;;;;;;;16.35;11.00;;;;;;;9.65;79.16;93607.59;5072581;28;20016;-69
2023/11/24 10:40:41;;;;;;;16.38;10.40;;;;;;;9.57;79.42;93596.19;5055937;28;20085;-69
2023/11/24 10:43:06;;;;;;;12.27;8.57;;;;;;;9.45;80.24;93583.63;5070800;28;20028;-69
2023/11/24 10:45:32;;;;;;;14.32;9.30;;;;;;;9.52;79.67;93584.66;5071478;28;20045;-69
2023/11/24 10:48:09;;;;;;;16.73;11.13;;;;;;;9.45;80.57;93584.44;5073723;28;20487;-69
2023/11/24 10:50:38;;;;;;;19.50;11.25;;;;;;;9.61;80.38;93581.16;5054571;28;20040;-69
2023/11/24 10:53:19;;;;;;;20.63;13.13;;;;;;;9.40;81.73;93576.31;5070748;28;20486;-69
2023/11/24 10:55:44;;;;;;;15.85;11.75;;;;;;;9.61;80.15;93568.19;5072119;28;20107;-69
2023/11/24 10:58:10;;;;;;;20.17;13.52;;;;;;;9.51;81.08;93554.53;5055918;28;20100;-69
2023/11/24 11:00:37;;;;;;;26.00;14.02;;;;;;;9.54;81.91;93556.81;5034864;28;20075;-69
2023/11/24 11:03:03;;;;;;;19.38;13.98;;;;;;;9.40;83.12;93540.81;5033556;28;20060;-69
2023/11/24 11:05:43;;;;;;;21.27;14.57;;;;;;;9.47;83.79;93550.59;5087765;28;20039;-69
2023/11/24 11:08:19;;;;;;;35.65;20.60;;;;;;;9.24;84.35;93526.94;5072348;28;20025;-70
2023/11/24 11:11:06;;;;;;;31.17;21.95;;;;;;;9.43;84.09;93538.91;5047877;28;20037;-70
2023/11/24 11:13:37;;;;;;;32.33;21.70;;;;;;;9.42;84.18;93529.47;5070366;28;20028;-69
2023/11/24 11:16:05;;;;;;;36.38;23.35;;;;;;;9.30;84.29;93540.09;5072370;28;20032;-70
2023/11/24 11:18:33;;;;;;;31.63;20.48;;;;;;;9.38;83.66;93527.19;5070272;28;20017;-69
2023/11/24 11:21:08;;;;;;;27.20;19.08;;;;;;;9.27;83.95;93514.47;5036302;28;20032;-69
2023/11/24 11:23:34;;;;;;;30.45;17.77;;;;;;;9.34;83.92;93504.34;5065998;28;20037;-69